Tonic Sea — D5AZ8 — position and weather

sailwx.info

Track history (hours):
 
Tides and Currents Weather Stations Pressure Air Temp Water Temp Dewpoint Dewpoint Depression Visibility Wind Speed Wind Dir Waves Ship Positions

Tonic Sea

Last reported at 2015-Jan-30 03:07 UTC. Time now 2015-Jan-31 17:38 UTC.
Position N 42°04' W 026°27'.

Length 229 m; draft 14.4 m.

Type: Cargo ship. MMSI: 636015479.

Date/timePositionNaut miles runAvg speedWind from/ knotsBaromVisibWave heightAir tempDewpointWater temp
2015-Jan-30 03:07N 42°04' W 026°27'1911.6
2015-Jan-30 01:29N 41°52' W 026°47'2311.8
2015-Jan-29 23:30N 41°37' W 027°11'1212.0
2015-Jan-29 22:31N 41°29' W 027°23'1311.8
2015-Jan-29 21:27N 41°21' W 027°35'1211.6
2015-Jan-29 20:26N 41°13' W 027°47'2411.7
2015-Jan-29 18:23N 40°57' W 028°11'2612.3
2015-Jan-29 16:17N 40°40' W 028°36'1312.4
2015-Jan-29 15:12N 40°31' W 028°50'3312.7
2015-Jan-29 12:33N 40°09' W 029°22'1512.6
2015-Jan-29 11:24N 39°59' W 029°37'1112.7
2015-Jan-29 10:33N 39°52' W 029°47'1312.7
2015-Jan-29 09:33N 39°44' W 029°60'1312.8
2015-Jan-29 08:33N 39°35' W 030°12'1312.7
2015-Jan-29 07:33N 39°26' W 030°24'1212.6
2015-Jan-29 06:33N 39°18' W 030°36'1312.5
2015-Jan-29 05:33N 39°10' W 030°48'1812.8
2015-Jan-29 04:11N 38°58' W 031°05'912.6
2015-Jan-29 03:26N 38°52' W 031°14'  
Track history (hours):
 
Tides and Currents Weather Stations Pressure Air Temp Water Temp Dewpoint Dewpoint Depression Visibility Wind Speed Wind Dir Waves Ship Positions

Tonic Sea

Last reported at 2015-Jan-30 03:07 UTC. Time now 2015-Jan-31 17:38 UTC.
Position N 42°04' W 026°27'.

Length 229 m; draft 14.4 m.

Type: Cargo ship. MMSI: 636015479.

Date/timePositionNaut miles runAvg speedWind from/ knotsBaromVisibWave heightAir tempDewpointWater temp
2015-Jan-30 03:07N 42°04' W 026°27'1911.6
2015-Jan-30 01:29N 41°52' W 026°47'2311.8
2015-Jan-29 23:30N 41°37' W 027°11'1212.0
2015-Jan-29 22:31N 41°29' W 027°23'1311.8
2015-Jan-29 21:27N 41°21' W 027°35'1211.6
2015-Jan-29 20:26N 41°13' W 027°47'2411.7
2015-Jan-29 18:23N 40°57' W 028°11'2612.3
2015-Jan-29 16:17N 40°40' W 028°36'1312.4
2015-Jan-29 15:12N 40°31' W 028°50'3312.7
2015-Jan-29 12:33N 40°09' W 029°22'1512.6
2015-Jan-29 11:24N 39°59' W 029°37'1112.7
2015-Jan-29 10:33N 39°52' W 029°47'1312.7
2015-Jan-29 09:33N 39°44' W 029°60'1312.8
2015-Jan-29 08:33N 39°35' W 030°12'1312.7
2015-Jan-29 07:33N 39°26' W 030°24'1212.6
2015-Jan-29 06:33N 39°18' W 030°36'1312.5
2015-Jan-29 05:33N 39°10' W 030°48'1812.8
2015-Jan-29 04:11N 38°58' W 031°05'912.6
2015-Jan-29 03:26N 38°52' W 031°14'  

Dump ship's entire track history